Terminal Aerodrome Forecast
Issued by NWS

Home | Current Version | Previous Version | Text Only | Print | Product List | Glossary Off
Versions: 1 2 3 4 5 6 7 8 9 10 11 12 13 14

000
FTUS43 KGRB 282300
TAFCWA
TAF
KCWA 282336Z 2900/2924 33007KT P6SM SCT040 BKN080
     FM290600 30003KT P6SM BKN080
     FM291600 29007KT P6SM VCSH SCT040 BKN060
      AMD LTD TO CLD VIS AND WIND 2903/2911=

USA.gov is the U.S. government's official web portal to all federal, state and local government web resources and services.